createdAt,value
2023-02-15T00:01:59.701Z,100.00
2023-02-15T00:07:01.507Z,100.00
2023-02-15T00:12:03.598Z,100.00
2023-02-15T00:17:05.528Z,100.00
2023-02-15T00:22:07.491Z,100.00
2023-02-15T00:27:10.328Z,100.00
2023-02-15T00:32:12.146Z,100.00
2023-02-15T00:37:14.005Z,100.00
2023-02-15T00:42:15.820Z,100.00
2023-02-15T00:47:17.843Z,100.00
2023-02-15T00:52:19.640Z,100.00
2023-02-15T00:57:21.472Z,100.00
2023-02-15T01:02:23.344Z,100.00
2023-02-15T01:07:25.168Z,100.00
2023-02-15T01:12:30.309Z,100.00
2023-02-15T01:17:33.228Z,100.00
2023-02-15T01:22:35.056Z,100.00
2023-02-15T01:27:36.923Z,100.00
2023-02-15T01:32:38.748Z,100.00
2023-02-15T01:37:40.624Z,100.00
2023-02-15T01:42:42.584Z,100.00
2023-02-15T01:48:28.954Z,100.00
2023-02-15T01:53:43.590Z,100.00
2023-02-15T01:58:46.497Z,100.00
2023-02-15T02:04:09.251Z,100.00
2023-02-15T02:09:11.394Z,100.00
2023-02-15T02:14:13.842Z,100.00
2023-02-15T02:19:34.254Z,100.00
2023-02-15T02:24:54.276Z,100.00
2023-02-15T02:30:12.258Z,100.00
2023-02-15T02:35:16.985Z,100.00
2023-02-15T02:40:34.173Z,100.00
2023-02-15T02:45:48.891Z,100.00
2023-02-15T02:50:52.498Z,100.00
2023-02-15T02:55:58.818Z,100.00
2023-02-15T03:01:09.494Z,100.00
2023-02-15T03:06:24.925Z,100.00
2023-02-15T03:11:27.038Z,100.00
2023-02-15T03:16:29.503Z,100.00
2023-02-15T03:21:42.200Z,100.00
2023-02-15T03:26:48.142Z,100.00
2023-02-15T03:31:57.845Z,100.00
2023-02-15T03:37:06.144Z,100.00
2023-02-15T03:42:22.102Z,100.00
2023-02-15T03:47:29.620Z,100.00
2023-02-15T03:52:34.949Z,100.00
2023-02-15T03:57:56.089Z,100.00
2023-02-15T04:03:17.123Z,100.00
2023-02-15T04:08:18.984Z,100.00
2023-02-15T04:13:21.972Z,100.00
2023-02-15T04:18:42.279Z,100.00
2023-02-15T04:24:02.532Z,100.00
2023-02-15T04:29:04.391Z,100.00
2023-02-15T04:34:06.214Z,100.00
2023-02-15T04:39:09.217Z,100.00
2023-02-15T04:44:11.493Z,100.00
2023-02-15T04:49:13.451Z,100.00
2023-02-15T04:54:15.283Z,100.00
2023-02-15T04:59:17.126Z,100.00
2023-02-15T05:04:19.111Z,100.00
2023-02-15T05:09:20.911Z,100.00
2023-02-15T05:14:22.763Z,100.00
2023-02-15T05:19:25.591Z,100.00
2023-02-15T05:24:46.005Z,100.00
2023-02-15T05:29:47.974Z,100.00
2023-02-15T05:34:49.817Z,100.00
2023-02-15T05:39:51.603Z,100.00
2023-02-15T05:44:53.853Z,100.00
2023-02-15T05:49:55.945Z,100.00
2023-02-15T05:54:57.804Z,100.00
2023-02-15T05:59:59.623Z,100.00
2023-02-15T06:05:01.494Z,100.00
2023-02-15T06:10:04.908Z,100.00
2023-02-15T06:15:07.320Z,100.00
2023-02-15T06:20:09.838Z,100.00
2023-02-15T06:25:12.307Z,100.00
2023-02-15T06:30:14.645Z,100.00
2023-02-15T06:35:16.496Z,100.00
2023-02-15T06:40:18.850Z,100.00
2023-02-15T06:45:20.683Z,100.00
2023-02-15T06:50:22.524Z,100.00
2023-02-15T06:55:24.462Z,100.00
2023-02-15T07:00:26.416Z,100.00
2023-02-15T07:05:32.291Z,100.00
2023-02-15T07:10:34.305Z,100.00
2023-02-15T07:15:36.128Z,100.00
2023-02-15T07:20:38.629Z,100.00
2023-02-15T07:25:40.421Z,100.00
2023-02-15T07:30:42.249Z,100.00
2023-02-15T07:35:48.835Z,100.00
2023-02-15T07:40:50.618Z,100.00
2023-02-15T07:45:52.501Z,100.00
2023-02-15T07:50:54.360Z,100.00
2023-02-15T07:56:00.144Z,100.00
2023-02-15T08:01:05.156Z,100.00
2023-02-15T08:06:07.978Z,100.00
2023-02-15T08:11:33.737Z,100.00
2023-02-15T08:16:42.915Z,100.00
2023-02-15T08:21:50.260Z,100.00
2023-02-15T08:26:52.782Z,100.00
2023-02-15T08:31:59.885Z,100.00
2023-02-15T08:37:02.074Z,100.00
2023-02-15T08:42:03.977Z,100.00
2023-02-15T08:47:05.797Z,100.00
2023-02-15T08:52:08.082Z,100.00
2023-02-15T08:57:11.341Z,100.00
2023-02-15T09:02:13.319Z,100.00
2023-02-15T09:07:15.149Z,100.00
2023-02-15T09:12:17.018Z,100.00
2023-02-15T09:17:18.867Z,100.00
2023-02-15T09:22:20.990Z,100.00
2023-02-15T09:27:22.884Z,100.00
2023-02-15T09:32:24.774Z,100.00
2023-02-15T09:37:26.585Z,100.00
2023-02-15T09:42:34.468Z,100.00
2023-02-15T09:48:28.653Z,100.00
2023-02-15T09:53:39.304Z,100.00
2023-02-15T09:58:47.228Z,100.00
2023-02-15T10:03:52.397Z,100.00
2023-02-15T10:09:14.500Z,100.00
2023-02-15T10:14:40.511Z,100.00
2023-02-15T10:20:00.871Z,100.00
2023-02-15T10:25:06.088Z,100.00
2023-02-15T10:30:14.225Z,96.19
2023-02-15T10:35:38.890Z,79.19
2023-02-15T10:41:10.632Z,77.52
2023-02-15T10:46:27.680Z,70.68
2023-02-15T10:51:41.730Z,71.75
2023-02-15T10:57:15.199Z,77.56
2023-02-15T11:03:11.260Z,75.95
2023-02-15T11:08:13.719Z,69.95
2023-02-15T11:13:18.956Z,59.50
2023-02-15T11:18:28.827Z,48.79
2023-02-15T11:23:33.185Z,44.23
2023-02-15T11:28:48.561Z,44.45
2023-02-15T11:34:33.022Z,44.71
2023-02-15T11:39:38.441Z,46.54
2023-02-15T11:44:59.131Z,46.04
2023-02-15T11:50:00.952Z,47.35
2023-02-15T11:55:02.787Z,42.81
2023-02-15T12:00:40.149Z,46.04
2023-02-15T12:05:45.531Z,46.17
2023-02-15T12:10:59.765Z,47.02
2023-02-15T12:16:11.307Z,47.68
2023-02-15T12:21:17.533Z,45.51
2023-02-15T12:26:32.371Z,44.73
2023-02-15T12:31:40.762Z,45.79
2023-02-15T12:36:55.438Z,43.81
2023-02-15T12:42:05.556Z,44.28
2023-02-15T12:47:19.723Z,43.55
2023-02-15T12:52:21.545Z,44.71
2023-02-15T12:57:31.676Z,44.07
2023-02-15T13:02:49.485Z,41.22
2023-02-15T13:07:57.064Z,39.47
2023-02-15T13:12:59.681Z,39.78
2023-02-15T13:18:03.138Z,39.91
2023-02-15T13:23:14.590Z,39.35
2023-02-15T13:28:19.396Z,36.60
2023-02-15T13:33:37.958Z,38.43
2023-02-15T13:39:02.742Z,37.79
2023-02-15T13:44:16.130Z,37.86
2023-02-15T13:49:30.396Z,36.34
2023-02-15T13:54:56.840Z,35.38
2023-02-15T14:00:14.862Z,42.86
2023-02-15T14:05:28.833Z,52.01
2023-02-15T14:11:08.043Z,58.08
2023-02-15T14:16:30.053Z,59.22
2023-02-15T14:21:36.354Z,62.38
2023-02-15T14:26:44.279Z,58.48
2023-02-15T14:31:53.348Z,58.76
2023-02-15T14:36:56.521Z,58.42
2023-02-15T14:42:05.819Z,58.80
2023-02-15T14:47:26.173Z,58.96
2023-02-15T14:52:28.636Z,60.57
2023-02-15T14:57:35.012Z,60.20
2023-02-15T15:02:52.776Z,61.93
2023-02-15T15:08:00.873Z,64.04
2023-02-15T15:13:31.516Z,69.02
2023-02-15T15:18:48.800Z,72.05
2023-02-15T15:23:51.181Z,70.92
2023-02-15T15:28:53.005Z,69.44
2023-02-15T15:34:27.305Z,66.95
2023-02-15T15:39:50.921Z,65.66
2023-02-15T15:45:04.991Z,65.21
2023-02-15T15:50:19.387Z,65.98
2023-02-15T15:55:24.734Z,67.87
2023-02-15T16:00:47.887Z,68.94
2023-02-15T16:05:55.219Z,71.30
2023-02-15T16:10:58.874Z,75.79
2023-02-15T16:16:00.885Z,79.17
2023-02-15T16:21:03.420Z,80.26
2023-02-15T16:26:27.280Z,85.06
2023-02-15T16:31:29.243Z,93.26
2023-02-15T16:36:31.108Z,94.84
2023-02-15T16:41:33.386Z,100.00
2023-02-15T16:46:41.390Z,100.00
2023-02-15T16:51:46.056Z,100.00
2023-02-15T16:56:48.507Z,100.00
2023-02-15T17:01:53.029Z,100.00
2023-02-15T17:07:27.312Z,100.00
2023-02-15T17:12:56.125Z,100.00
2023-02-15T17:18:02.259Z,100.00
2023-02-15T17:23:05.175Z,100.00
2023-02-15T17:28:18.535Z,100.00
2023-02-15T17:33:34.662Z,100.00
2023-02-15T17:38:38.999Z,100.00
2023-02-15T17:43:42.559Z,100.00
2023-02-15T17:48:44.429Z,100.00
2023-02-15T17:54:05.811Z,100.00
2023-02-15T17:59:07.842Z,100.00
2023-02-15T18:04:31.632Z,100.00
2023-02-15T18:09:52.095Z,100.00
2023-02-15T18:14:55.204Z,100.00
2023-02-15T18:19:57.162Z,100.00
2023-02-15T18:24:59.506Z,100.00
2023-02-15T18:30:01.423Z,100.00
2023-02-15T18:35:05.516Z,100.00
2023-02-15T18:40:15.928Z,100.00
2023-02-15T18:45:25.199Z,100.00
2023-02-15T18:50:31.589Z,100.00
2023-02-15T18:55:35.471Z,100.00
2023-02-15T19:00:37.364Z,100.00
2023-02-15T19:05:42.158Z,100.00
2023-02-15T19:10:44.150Z,100.00
2023-02-15T19:15:45.995Z,100.00
2023-02-15T19:20:48.321Z,100.00
2023-02-15T19:25:52.452Z,100.00
2023-02-15T19:30:54.342Z,100.00
2023-02-15T19:35:57.592Z,100.00
2023-02-15T19:41:06.789Z,100.00
2023-02-15T19:46:19.167Z,100.00
2023-02-15T19:51:23.214Z,100.00
2023-02-15T19:56:27.021Z,100.00
2023-02-15T20:01:31.203Z,100.00
2023-02-15T20:06:33.664Z,100.00
2023-02-15T20:11:35.728Z,100.00
2023-02-15T20:16:37.568Z,100.00
2023-02-15T20:21:41.396Z,100.00
2023-02-15T20:26:43.659Z,100.00
2023-02-15T20:31:46.031Z,100.00
2023-02-15T20:36:48.109Z,100.00
2023-02-15T20:41:49.993Z,100.00
2023-02-15T20:46:54.753Z,100.00
2023-02-15T20:51:57.496Z,100.00
2023-02-15T20:56:59.501Z,100.00
2023-02-15T21:02:14.562Z,100.00
2023-02-15T21:07:18.592Z,100.00
2023-02-15T21:12:22.226Z,100.00
2023-02-15T21:17:24.211Z,100.00
2023-02-15T21:22:26.975Z,100.00
2023-02-15T21:27:29.103Z,100.00
2023-02-15T21:32:31.032Z,100.00
2023-02-15T21:37:35.661Z,100.00
2023-02-15T21:42:55.964Z,100.00
2023-02-15T21:47:57.831Z,100.00
2023-02-15T21:52:59.972Z,100.00
2023-02-15T21:58:02.256Z,100.00
2023-02-15T22:03:05.595Z,100.00
2023-02-15T22:08:13.296Z,100.00
2023-02-15T22:13:19.892Z,100.00
2023-02-15T22:18:24.868Z,100.00
2023-02-15T22:23:26.800Z,100.00
2023-02-15T22:28:33.896Z,100.00
2023-02-15T22:33:35.896Z,100.00
2023-02-15T22:38:37.724Z,100.00
2023-02-15T22:43:42.223Z,100.00
2023-02-15T22:48:47.461Z,100.00
2023-02-15T22:53:51.847Z,100.00
2023-02-15T22:59:02.587Z,100.00
2023-02-15T23:04:04.828Z,100.00
2023-02-15T23:09:06.650Z,100.00
2023-02-15T23:14:38.429Z,100.00
2023-02-15T23:19:40.318Z,100.00
2023-02-15T23:24:42.987Z,100.00
2023-02-15T23:29:44.837Z,100.00
2023-02-15T23:34:46.688Z,100.00
2023-02-15T23:40:06.981Z,100.00
2023-02-15T23:45:23.323Z,100.00
2023-02-15T23:50:27.488Z,100.00
2023-02-15T23:55:38.677Z,100.00
